Time;durP1;ratioP1;P1;durP2;ratioP2;P2;SDS_P1;SDS_P2;PMS_P1;PMS_P2;Temp;Humidity;BMP_temperature;BMP_pressure;BME280_temperature;BME280_humidity;BME280_pressure;Samples;Min_cycle;Max_cycle;Signal;HPM_P1;HPM_P2
2021/09/09 00:00:12;;;;;;;14.03;12.53;;;17.60;99.90;;;;;;6205252;23;20402;-84
2021/09/09 00:02:39;;;;;;;13.13;11.70;;;17.60;99.90;;;;;;6192203;23;20396;-85
2021/09/09 00:05:08;;;;;;;12.67;11.33;;;17.60;99.90;;;;;;6190960;23;20457;-85
2021/09/09 00:07:35;;;;;;;12.75;10.38;;;17.60;99.90;;;;;;6189564;23;20438;-86
2021/09/09 00:10:02;;;;;;;14.10;12.03;;;17.60;99.90;;;;;;6190088;23;20254;-85
2021/09/09 00:12:31;;;;;;;11.23;10.03;;;17.60;99.90;;;;;;6194503;23;20416;-85
2021/09/09 00:14:58;;;;;;;11.43;10.23;;;17.50;99.90;;;;;;6193610;23;20411;-84
2021/09/09 00:17:25;;;;;;;13.30;11.90;;;17.60;99.90;;;;;;6193338;23;20437;-85
2021/09/09 00:20:09;;;;;;;12.97;10.80;;;17.50;99.90;;;;;;6192923;23;20418;-86
2021/09/09 00:22:38;;;;;;;10.07;9.07;;;17.50;99.90;;;;;;6193256;23;20410;-86
2021/09/09 00:25:09;;;;;;;13.47;12.17;;;17.50;99.90;;;;;;6192823;23;20780;-86
2021/09/09 00:27:41;;;;;;;14.20;10.93;;;17.50;99.90;;;;;;6191598;23;20438;-85
2021/09/09 00:30:14;;;;;;;17.63;11.10;;;17.40;99.90;;;;;;6192198;23;20446;-85
2021/09/09 00:32:41;;;;;;;12.30;11.00;;;17.50;99.90;;;;;;6191599;23;20414;-84
2021/09/09 00:35:09;;;;;;;12.90;10.85;;;17.40;99.90;;;;;;6191366;23;20417;-84
2021/09/09 00:37:38;;;;;;;12.77;11.47;;;17.40;99.90;;;;;;6191153;23;20277;-86
2021/09/09 00:40:09;;;;;;;12.93;11.63;;;17.30;99.90;;;;;;6191933;23;20470;-86
2021/09/09 00:42:39;;;;;;;13.65;12.25;;;17.30;99.90;;;;;;6192742;23;20380;-86
2021/09/09 00:45:07;;;;;;;13.77;11.80;;;17.20;99.90;;;;;;6196218;23;20203;-84
2021/09/09 00:47:36;;;;;;;13.07;11.77;;;17.20;99.90;;;;;;6209057;23;20469;-86
2021/09/09 00:50:03;;;;;;;14.27;12.77;;;17.10;99.90;;;;;;6190211;23;20193;-85
2021/09/09 00:52:30;;;;;;;20.90;12.55;;;17.10;99.90;;;;;;6191084;23;20198;-86
2021/09/09 00:54:57;;;;;;;18.58;12.80;;;17.10;99.90;;;;;;6190539;23;20287;-86
2021/09/09 00:57:25;;;;;;;15.55;12.60;;;17.10;99.90;;;;;;6190454;23;20205;-85
2021/09/09 00:59:55;;;;;;;14.23;12.73;;;17.00;99.90;;;;;;6191279;23;20183;-85
2021/09/09 01:02:23;;;;;;;13.57;11.60;;;17.00;99.90;;;;;;6191706;23;20410;-85
2021/09/09 01:04:50;;;;;;;14.65;11.80;;;17.00;99.90;;;;;;6191611;23;20639;-86
2021/09/09 01:07:17;;;;;;;15.65;11.43;;;17.00;99.90;;;;;;6192722;23;20183;-86
2021/09/09 01:09:49;;;;;;;14.80;12.68;;;17.00;99.90;;;;;;6192650;23;20179;-84
2021/09/09 01:12:17;;;;;;;13.30;12.00;;;17.00;99.90;;;;;;6191385;23;20170;-86
2021/09/09 01:14:46;;;;;;;13.60;10.90;;;16.90;99.90;;;;;;6193605;23;20163;-86
2021/09/09 01:17:17;;;;;;;18.48;13.40;;;16.90;99.90;;;;;;6192588;23;20174;-86
2021/09/09 01:19:47;;;;;;;15.88;12.27;;;16.90;99.90;;;;;;6202966;23;20221;-85
2021/09/09 01:22:23;;;;;;;14.13;12.63;;;16.90;99.90;;;;;;6191981;23;20178;-86
2021/09/09 01:24:51;;;;;;;14.80;11.85;;;16.90;99.90;;;;;;6190701;23;20441;-86
2021/09/09 01:27:19;;;;;;;13.10;11.57;;;16.90;99.90;;;;;;6191901;23;20182;-85
2021/09/09 01:29:47;;;;;;;13.43;12.02;;;16.80;99.90;;;;;;6192851;23;20241;-85
2021/09/09 01:32:15;;;;;;;16.95;13.20;;;16.70;99.90;;;;;;6162293;23;20815;-85
2021/09/09 01:34:43;;;;;;;13.25;11.20;;;16.80;99.90;;;;;;6162512;23;20781;-85
2021/09/09 01:37:10;;;;;;;15.10;12.13;;;16.80;99.90;;;;;;6162529;23;20187;-86
2021/09/09 01:39:39;;;;;;;14.13;11.85;;;16.70;99.90;;;;;;6162283;23;20438;-85
2021/09/09 01:42:10;;;;;;;13.77;12.18;;;16.70;99.90;;;;;;6161191;23;20178;-85
2021/09/09 01:44:38;;;;;;;16.08;13.27;;;16.70;99.90;;;;;;6161833;23;20687;-85
2021/09/09 01:47:08;;;;;;;14.48;12.98;;;16.70;99.90;;;;;;6161900;23;20179;-86
2021/09/09 01:49:37;;;;;;;13.98;12.48;;;16.70;99.90;;;;;;6161586;23;20182;-85
2021/09/09 01:52:05;;;;;;;14.73;12.55;;;16.60;99.90;;;;;;6161045;23;20755;-85
2021/09/09 01:54:33;;;;;;;13.48;11.45;;;16.60;99.90;;;;;;6162353;23;20185;-85
2021/09/09 01:57:00;;;;;;;13.40;12.07;;;16.60;99.90;;;;;;6161168;23;20711;-85
2021/09/09 01:59:29;;;;;;;16.08;12.45;;;16.50;99.90;;;;;;6161703;23;20209;-86
2021/09/09 02:01:57;;;;;;;16.20;11.57;;;16.50;99.90;;;;;;6165710;23;20187;-86
2021/09/09 02:04:28;;;;;;;13.80;11.35;;;16.50;99.90;;;;;;6176623;23;20196;-84
2021/09/09 02:06:57;;;;;;;14.45;13.00;;;16.50;99.90;;;;;;6178331;23;20162;-85
2021/09/09 02:09:26;;;;;;;16.20;13.45;;;16.50;99.90;;;;;;6179991;23;20187;-84
2021/09/09 02:11:53;;;;;;;13.82;12.45;;;16.50;99.90;;;;;;6176059;23;20224;-86
2021/09/09 02:14:20;;;;;;;18.73;13.43;;;16.50;99.90;;;;;;6168383;23;20172;-85
2021/09/09 02:16:56;;;;;;;14.85;12.23;;;16.60;99.90;;;;;;6161706;23;20183;-85
2021/09/09 02:19:23;;;;;;;14.75;12.85;;;16.50;99.90;;;;;;6162404;23;20197;-86
2021/09/09 02:21:50;;;;;;;14.40;12.73;;;16.40;99.90;;;;;;6161969;23;20178;-85
2021/09/09 02:24:17;;;;;;;16.67;13.57;;;16.50;99.90;;;;;;6161898;23;20195;-84
2021/09/09 02:26:46;;;;;;;15.52;13.90;;;16.50;99.90;;;;;;6178187;23;20222;-85
2021/09/09 02:29:13;;;;;;;15.63;13.50;;;16.40;99.90;;;;;;6184402;23;20214;-84
2021/09/09 02:31:40;;;;;;;16.35;14.13;;;16.40;99.90;;;;;;6207285;23;20216;-83
2021/09/09 02:34:09;;;;;;;16.95;13.82;;;16.40;99.90;;;;;;6209538;23;20232;-85
2021/09/09 02:36:48;;;;;;;17.13;15.32;;;16.30;99.90;;;;;;6194551;23;20710;-86
2021/09/09 02:39:18;;;;;;;17.77;14.45;;;16.30;99.90;;;;;;6194960;23;20284;-86
2021/09/09 02:41:48;;;;;;;15.05;13.38;;;16.10;99.90;;;;;;6194458;23;20232;-85
2021/09/09 02:44:23;;;;;;;15.82;14.20;;;16.10;99.90;;;;;;6194579;23;20726;-85
2021/09/09 02:46:50;;;;;;;15.60;14.00;;;15.90;99.90;;;;;;6193951;23;20156;-86
2021/09/09 02:49:24;;;;;;;15.82;14.23;;;16.00;99.90;;;;;;6193706;23;20280;-86
2021/09/09 02:52:04;;;;;;;20.40;15.05;;;16.00;99.90;;;;;;6192429;23;20168;-85
2021/09/09 02:54:34;;;;;;;15.52;13.85;;;16.00;99.90;;;;;;6194263;23;20204;-86
2021/09/09 02:57:05;;;;;;;16.70;14.27;;;15.90;99.90;;;;;;6194089;23;20176;-85
2021/09/09 02:59:32;;;;;;;17.73;14.18;;;15.90;99.90;;;;;;6193872;23;20228;-86
2021/09/09 03:01:59;;;;;;;17.10;14.90;;;15.80;99.90;;;;;;6193022;23;20240;-85
2021/09/09 03:04:27;;;;;;;17.77;14.50;;;15.90;99.90;;;;;;6191225;23;20690;-86
2021/09/09 03:06:55;;;;;;;16.17;14.00;;;15.80;99.90;;;;;;6192175;23;20204;-85
2021/09/09 03:09:22;;;;;;;15.43;13.82;;;15.90;99.90;;;;;;6192477;23;20200;-86
2021/09/09 03:11:49;;;;;;;16.90;15.18;;;15.90;99.90;;;;;;6193347;23;20176;-86
2021/09/09 03:14:17;;;;;;;16.25;14.52;;;15.90;99.90;;;;;;6192249;23;20204;-85
2021/09/09 03:16:48;;;;;;;15.95;13.20;;;15.90;99.90;;;;;;6192513;23;20232;-85
2021/09/09 03:19:16;;;;;;;18.58;14.77;;;15.90;99.90;;;;;;6192305;23;20196;-86
2021/09/09 03:21:49;;;;;;;19.17;15.75;;;15.90;99.90;;;;;;6193239;23;20208;-85
2021/09/09 03:24:18;;;;;;;16.90;14.52;;;15.90;99.90;;;;;;6193459;23;20191;-85
2021/09/09 03:26:45;;;;;;;16.50;14.82;;;15.90;99.90;;;;;;6193302;23;20180;-86
2021/09/09 03:31:55;;;;;;;15.50;13.88;;;15.80;99.90;;;;;;6189449;23;20231;-86
2021/09/09 03:34:24;;;;;;;17.77;14.85;;;15.80;99.90;;;;;;6196162;23;20176;-84
2021/09/09 03:36:55;;;;;;;16.67;13.98;;;15.70;99.90;;;;;;6204095;23;20159;-85
2021/09/09 03:39:25;;;;;;;18.83;16.25;;;15.70;99.90;;;;;;6192434;23;20527;-84
2021/09/09 03:41:55;;;;;;;19.77;15.73;;;15.70;99.90;;;;;;6192143;23;20168;-84
2021/09/09 03:44:24;;;;;;;18.20;15.55;;;15.60;99.90;;;;;;6192828;23;20188;-85
2021/09/09 03:46:51;;;;;;;19.30;16.35;;;15.60;99.90;;;;;;6192640;23;20182;-86
2021/09/09 03:49:18;;;;;;;16.83;15.07;;;15.60;99.90;;;;;;6192822;23;20200;-86
2021/09/09 03:51:46;;;;;;;18.02;16.15;;;15.50;99.90;;;;;;6194813;23;20176;-85
2021/09/09 03:54:14;;;;;;;17.85;16.05;;;15.50;99.90;;;;;;6195123;23;20515;-85
2021/09/09 03:56:43;;;;;;;16.88;15.07;;;15.40;99.90;;;;;;6194622;23;20711;-84
2021/09/09 03:59:10;;;;;;;15.68;14.00;;;15.40;99.90;;;;;;6193959;23;20201;-85
2021/09/09 04:01:37;;;;;;;16.27;14.55;;;15.40;99.90;;;;;;6193815;23;20180;-85
2021/09/09 04:04:09;;;;;;;17.40;15.60;;;15.40;99.90;;;;;;6193686;23;20176;-84
2021/09/09 04:06:36;;;;;;;19.23;17.33;;;15.40;99.90;;;;;;6195643;23;20263;-85
2021/09/09 04:09:06;;;;;;;18.33;16.05;;;15.40;99.90;;;;;;6197109;23;20201;-86
2021/09/09 04:11:36;;;;;;;19.60;17.60;;;15.40;99.90;;;;;;6208599;23;20176;-84
2021/09/09 04:14:05;;;;;;;18.48;16.50;;;15.40;99.90;;;;;;6212298;23;20160;-84
2021/09/09 04:16:35;;;;;;;20.88;17.20;;;15.40;99.90;;;;;;6211828;23;20216;-84
2021/09/09 04:19:04;;;;;;;17.02;15.00;;;15.50;99.90;;;;;;6202291;23;20234;-85
2021/09/09 04:21:34;;;;;;;17.10;15.07;;;15.50;99.90;;;;;;6194243;23;20280;-85
2021/09/09 04:24:03;;;;;;;19.42;16.65;;;15.50;99.90;;;;;;6194249;23;20172;-84
2021/09/09 04:26:31;;;;;;;19.35;17.13;;;15.40;99.90;;;;;;6194982;23;20548;-85
2021/09/09 04:28:59;;;;;;;19.55;17.45;;;15.30;99.90;;;;;;6195540;23;20219;-85
2021/09/09 04:31:28;;;;;;;22.80;17.02;;;15.30;99.90;;;;;;6193750;23;20194;-86
2021/09/09 04:33:56;;;;;;;20.40;17.20;;;15.30;99.90;;;;;;6193083;23;20631;-86
2021/09/09 04:36:39;;;;;;;18.77;15.00;;;15.20;99.90;;;;;;6193691;23;20206;-86
2021/09/09 04:39:07;;;;;;;28.33;17.33;;;15.20;99.90;;;;;;6192098;23;20196;-85
2021/09/09 04:41:51;;;;;;;;;;;;;;;;;;;;;
2021/09/09 04:48:00;;;;;;;22.75;16.25;;;15.10;99.90;;;;;;6032442;23;20214;-85
2021/09/09 04:50:32;;;;;;;19.70;17.67;;;15.30;99.90;;;;;;6194318;23;20251;-87
2021/09/09 04:53:15;;;;;;;19.70;17.30;;;15.20;99.90;;;;;;6194857;23;20171;-86
2021/09/09 04:58:49;;;;;;;25.58;20.38;;;15.20;99.90;;;;;;6195453;23;20198;-86
2021/09/09 05:01:26;;;;;;;22.35;18.63;;;15.20;99.90;;;;;;6197338;23;20620;-86
2021/09/09 05:28:13;;;;;;;21.40;17.88;;;15.70;99.90;;;;;;5877299;24;20274;-86
2021/09/09 06:47:17;;;;;;;19.07;14.73;;;28.20;86.30;;;;;;6162204;23;20428;-67
2021/09/09 06:49:44;;;;;;;17.40;15.60;;;28.40;84.90;;;;;;6123654;23;20401;-67
2021/09/09 06:52:11;;;;;;;17.53;15.73;;;28.70;84.80;;;;;;6123238;23;20405;-67
2021/09/09 06:54:38;;;;;;;17.00;15.30;;;29.10;82.60;;;;;;6124395;23;20406;-67
2021/09/09 06:57:05;;;;;;;17.10;15.30;;;28.90;82.20;;;;;;6124280;23;20496;-67
2021/09/09 06:59:32;;;;;;;17.70;15.03;;;29.10;82.30;;;;;;6125215;23;20393;-66
2021/09/09 07:01:59;;;;;;;15.60;14.10;;;28.70;82.50;;;;;;6125801;23;20915;-66
2021/09/09 07:04:28;;;;;;;18.10;15.80;;;29.00;82.80;;;;;;6128552;23;20416;-67
2021/09/09 07:06:55;;;;;;;15.67;14.07;;;29.20;81.70;;;;;;6129888;23;20413;-67
2021/09/09 07:09:22;;;;;;;15.27;13.70;;;29.10;81.70;;;;;;6128170;23;20426;-68
2021/09/09 07:11:50;;;;;;;16.90;15.30;;;29.40;81.10;;;;;;6129906;23;20409;-67
2021/09/09 07:14:20;;;;;;;18.73;16.77;;;29.50;80.80;;;;;;6128040;23;20440;-67
2021/09/09 07:16:48;;;;;;;22.33;14.80;;;29.60;80.30;;;;;;6127323;23;20394;-66
2021/09/09 07:19:15;;;;;;;19.77;15.33;;;29.60;80.50;;;;;;6126396;23;20960;-67
2021/09/09 07:21:49;;;;;;;20.43;15.57;;;30.00;79.80;;;;;;6126546;23;20720;-66
2021/09/09 07:24:17;;;;;;;17.60;15.07;;;30.50;77.50;;;;;;6127837;23;20436;-68
2021/09/09 07:26:45;;;;;;;17.27;15.57;;;31.00;76.50;;;;;;6126558;23;20504;-67
2021/09/09 07:29:13;;;;;;;17.20;15.50;;;30.80;76.20;;;;;;6126883;23;21028;-67
2021/09/09 07:31:41;;;;;;;19.40;15.23;;;30.90;75.60;;;;;;6127240;23;20449;-69
2021/09/09 07:34:09;;;;;;;17.73;15.30;;;31.00;76.80;;;;;;6126398;23;20412;-68
2021/09/09 07:36:36;;;;;;;19.93;15.77;;;30.90;76.40;;;;;;6126485;23;20406;-67
2021/09/09 07:39:06;;;;;;;19.87;15.50;;;30.60;76.80;;;;;;6126035;23;20434;-65
2021/09/09 07:41:34;;;;;;;17.13;15.07;;;30.00;77.80;;;;;;6126553;23;20414;-67
2021/09/09 07:44:03;;;;;;;15.57;13.90;;;30.10;77.90;;;;;;6126183;23;20406;-68
2021/09/09 07:46:30;;;;;;;17.43;15.47;;;30.60;76.80;;;;;;6126288;23;20447;-67
2021/09/09 07:49:10;;;;;;;16.63;14.93;;;30.70;76.40;;;;;;6126378;23;20448;-69
2021/09/09 07:51:40;;;;;;;16.80;14.47;;;30.40;77.20;;;;;;6130939;23;20402;-67
2021/09/09 07:54:09;;;;;;;16.20;14.50;;;31.10;76.10;;;;;;6130618;23;20417;-70
2021/09/09 07:56:36;;;;;;;15.63;14.13;;;31.00;74.70;;;;;;6133859;23;20405;-68
2021/09/09 07:59:11;;;;;;;18.00;14.50;;;31.40;74.00;;;;;;6130042;23;20429;-67
2021/09/09 08:01:38;;;;;;;15.00;13.40;;;31.80;72.70;;;;;;6128497;23;20908;-68
2021/09/09 08:04:05;;;;;;;17.90;15.83;;;32.20;72.10;;;;;;6126505;23;20749;-67
2021/09/09 08:06:33;;;;;;;16.90;15.20;;;32.10;71.90;;;;;;6127213;23;20465;-68
2021/09/09 08:09:00;;;;;;;16.57;15.03;;;32.20;71.40;;;;;;6127100;23;20440;-67
2021/09/09 08:11:29;;;;;;;17.27;15.43;;;32.10;71.80;;;;;;6128307;23;20448;-67
2021/09/09 08:13:59;;;;;;;14.00;12.63;;;32.60;70.60;;;;;;6126473;23;20433;-67
2021/09/09 08:16:27;;;;;;;16.37;14.70;;;32.90;70.20;;;;;;6126906;23;20627;-67
2021/09/09 08:18:56;;;;;;;19.73;13.93;;;33.30;68.90;;;;;;6126546;23;20520;-68
2021/09/09 08:21:26;;;;;;;15.80;14.20;;;33.40;69.70;;;;;;6126904;23;20917;-68
2021/09/09 08:23:56;;;;;;;16.50;14.50;;;33.60;67.90;;;;;;6126129;23;20422;-67
2021/09/09 08:26:31;;;;;;;15.70;13.77;;;34.10;67.00;;;;;;6127235;23;20441;-68
2021/09/09 08:28:59;;;;;;;14.67;13.37;;;34.50;66.10;;;;;;6124287;23;20445;-66
2021/09/09 08:31:27;;;;;;;15.40;13.40;;;34.80;65.00;;;;;;6124869;23;20947;-67
2021/09/09 08:33:54;;;;;;;16.03;14.57;;;35.10;64.00;;;;;;6124043;23;20737;-67
2021/09/09 08:36:21;;;;;;;17.27;15.47;;;34.30;65.30;;;;;;6125087;23;20733;-67
2021/09/09 08:38:49;;;;;;;15.60;14.00;;;34.10;64.90;;;;;;6124262;23;20736;-68
2021/09/09 08:41:16;;;;;;;14.80;13.30;;;34.40;64.70;;;;;;6124369;23;20413;-68
2021/09/09 08:43:44;;;;;;;15.33;13.87;;;34.40;64.80;;;;;;6125024;23;20420;-68
2021/09/09 08:46:16;;;;;;;14.40;13.00;;;35.20;62.60;;;;;;6123109;23;20445;-67
2021/09/09 08:48:44;;;;;;;18.60;13.33;;;35.10;62.30;;;;;;6123649;23;21019;-68
2021/09/09 08:51:12;;;;;;;14.10;12.60;;;35.10;62.30;;;;;;6124093;23;20441;-68
2021/09/09 08:53:40;;;;;;;13.77;12.10;;;34.90;62.60;;;;;;6125052;23;20954;-68
2021/09/09 08:56:07;;;;;;;14.33;12.13;;;35.20;62.50;;;;;;6125829;23;20913;-68
2021/09/09 08:58:36;;;;;;;14.20;12.13;;;34.60;61.10;;;;;;6123874;23;20437;-67
2021/09/09 09:01:08;;;;;;;13.73;12.53;;;34.00;64.40;;;;;;6124140;23;20466;-68
2021/09/09 09:03:51;;;;;;;14.93;12.67;;;35.20;61.80;;;;;;6123953;23;20416;-67
2021/09/09 09:06:34;;;;;;;12.77;11.03;;;35.60;60.50;;;;;;6124866;23;20436;-68
2021/09/09 09:09:04;;;;;;;12.73;11.53;;;35.70;60.20;;;;;;6124869;23;20805;-67
2021/09/09 09:11:33;;;;;;;13.93;12.10;;;35.50;60.20;;;;;;6124623;23;20789;-68
2021/09/09 09:14:01;;;;;;;12.80;11.60;;;35.10;60.10;;;;;;6124431;23;20452;-69
2021/09/09 09:16:29;;;;;;;13.60;12.20;;;35.10;60.30;;;;;;6124212;23;20408;-68
2021/09/09 09:18:59;;;;;;;13.00;11.37;;;35.20;60.30;;;;;;6124152;23;20817;-68
2021/09/09 09:21:30;;;;;;;13.70;12.30;;;35.00;61.40;;;;;;6124514;23;20508;-69
2021/09/09 09:23:59;;;;;;;16.53;12.80;;;35.40;60.10;;;;;;6124135;23;20873;-68
2021/09/09 09:26:26;;;;;;;14.10;12.70;;;35.40;60.00;;;;;;6123790;23;20456;-68
2021/09/09 09:28:55;;;;;;;11.73;10.63;;;35.30;61.20;;;;;;6123781;23;20429;-68
2021/09/09 09:31:23;;;;;;;13.30;10.73;;;35.20;59.50;;;;;;6124663;23;20511;-68
2021/09/09 09:33:54;;;;;;;14.40;12.00;;;35.00;60.70;;;;;;6124442;23;20942;-68
2021/09/09 09:36:25;;;;;;;17.50;12.00;;;34.60;61.10;;;;;;6124581;23;20386;-69
2021/09/09 09:38:54;;;;;;;17.90;11.47;;;34.90;60.20;;;;;;6125141;23;20943;-68
2021/09/09 09:41:23;;;;;;;13.47;12.17;;;35.00;60.50;;;;;;6124681;23;20405;-69
2021/09/09 09:43:52;;;;;;;16.10;12.07;;;35.40;59.80;;;;;;6124635;23;20413;-67
2021/09/09 09:46:33;;;;;;;14.23;12.30;;;34.90;60.00;;;;;;6124364;23;20441;-68
2021/09/09 09:49:20;;;;;;;16.90;11.10;;;34.30;60.10;;;;;;6124441;23;20479;-68
2021/09/09 09:51:49;;;;;;;11.80;10.60;;;34.60;60.60;;;;;;6123954;23;20435;-68
2021/09/09 09:54:18;;;;;;;11.87;10.67;;;34.60;60.40;;;;;;6124810;23;20783;-68
2021/09/09 09:56:47;;;;;;;11.53;10.43;;;34.80;60.10;;;;;;6124577;23;20703;-67
2021/09/09 09:59:14;;;;;;;11.93;10.37;;;35.00;59.40;;;;;;6124507;23;20425;-67
2021/09/09 10:01:43;;;;;;;11.70;10.50;;;34.80;59.80;;;;;;6124307;23;20416;-68
2021/09/09 10:04:12;;;;;;;13.77;11.37;;;34.50;60.40;;;;;;6123953;23;20402;-67
2021/09/09 10:06:39;;;;;;;10.83;9.83;;;34.20;60.80;;;;;;6124240;23;20448;-67
2021/09/09 10:09:08;;;;;;;11.53;10.47;;;34.70;60.60;;;;;;6124133;23;20429;-68
2021/09/09 10:11:35;;;;;;;11.20;10.00;;;34.60;59.70;;;;;;6123697;23;20409;-67
2021/09/09 10:14:05;;;;;;;11.77;10.20;;;34.60;60.00;;;;;;6124362;23;20786;-68
2021/09/09 10:16:38;;;;;;;10.53;9.53;;;34.10;60.30;;;;;;6123843;23;20496;-68
2021/09/09 10:19:05;;;;;;;11.90;10.23;;;34.10;61.10;;;;;;6123982;23;20425;-68
2021/09/09 10:21:44;;;;;;;13.43;10.07;;;34.10;60.90;;;;;;6122714;23;20892;-68
2021/09/09 10:24:16;;;;;;;13.23;10.50;;;34.20;61.40;;;;;;6123162;23;20450;-68
2021/09/09 10:26:43;;;;;;;15.97;11.40;;;33.50;61.70;;;;;;6123507;23;20464;-69
2021/09/09 10:29:43;;;;;;;13.43;11.20;;;33.40;62.00;;;;;;6123029;23;20429;-68
2021/09/09 10:32:49;;;;;;;14.27;9.13;;;33.00;62.50;;;;;;6123759;23;20390;-68
2021/09/09 10:35:41;;;;;;;11.40;9.70;;;32.50;62.90;;;;;;6124014;23;20916;-68
2021/09/09 10:38:34;;;;;;;12.90;8.57;;;32.10;63.00;;;;;;6123217;23;20421;-68
2021/09/09 10:41:05;;;;;;;9.97;8.97;;;31.50;64.40;;;;;;6124206;23;20393;-68
2021/09/09 10:43:46;;;;;;;11.70;10.10;;;31.00;65.70;;;;;;6123764;23;20515;-67
2021/09/09 10:46:14;;;;;;;10.97;9.00;;;30.70;67.10;;;;;;6125791;23;20480;-67
2021/09/09 10:48:43;;;;;;;10.97;9.27;;;30.50;67.60;;;;;;6125490;23;20447;-67
2021/09/09 10:51:15;;;;;;;10.10;9.13;;;30.30;68.60;;;;;;6124867;23;20419;-66
2021/09/09 10:53:44;;;;;;;9.47;8.53;;;30.30;68.10;;;;;;6124707;23;21064;-66
2021/09/09 10:56:15;;;;;;;10.17;9.00;;;29.90;67.90;;;;;;6124847;23;20390;-68
2021/09/09 10:58:43;;;;;;;9.50;8.60;;;29.60;69.30;;;;;;6124802;23;20465;-68
2021/09/09 11:01:11;;;;;;;13.70;9.27;;;29.60;69.70;;;;;;6125944;23;20401;-68
2021/09/09 11:03:39;;;;;;;10.20;9.30;;;29.60;69.90;;;;;;6125329;23;20409;-68
2021/09/09 11:06:08;;;;;;;12.57;8.60;;;29.60;70.00;;;;;;6125649;23;20468;-68
2021/09/09 11:08:36;;;;;;;13.07;10.63;;;29.70;70.80;;;;;;6125720;23;20429;-67
2021/09/09 11:11:05;;;;;;;11.03;9.63;;;29.50;68.70;;;;;;6124998;23;20409;-69
2021/09/09 11:13:36;;;;;;;11.10;9.43;;;29.50;69.40;;;;;;6125914;23;20409;-68
2021/09/09 11:16:19;;;;;;;10.90;8.20;;;29.30;70.20;;;;;;6125702;23;20555;-67
2021/09/09 11:18:46;;;;;;;12.53;10.50;;;29.20;70.50;;;;;;6126149;23;20500;-67
2021/09/09 11:21:17;;;;;;;11.30;9.30;;;29.10;70.50;;;;;;6125665;23;20615;-67
2021/09/09 11:23:44;;;;;;;9.27;8.33;;;29.10;70.80;;;;;;6124843;23;20393;-68
2021/09/09 11:26:13;;;;;;;15.10;8.37;;;29.10;69.60;;;;;;6125399;23;20468;-68
2021/09/09 11:28:42;;;;;;;10.13;9.17;;;29.10;70.00;;;;;;6125215;23;20929;-68
2021/09/09 11:31:13;;;;;;;9.30;8.30;;;29.20;70.30;;;;;;6124803;23;20409;-68
2021/09/09 11:33:53;;;;;;;9.83;8.83;;;29.20;70.00;;;;;;6127231;23;20477;-68
2021/09/09 11:36:22;;;;;;;10.00;8.80;;;29.10;69.60;;;;;;6127435;23;20390;-67
2021/09/09 11:38:49;;;;;;;9.37;8.47;;;29.00;70.70;;;;;;6128027;23;20430;-67
2021/09/09 11:41:18;;;;;;;9.27;8.37;;;29.00;70.60;;;;;;6128213;23;20413;-67
2021/09/09 11:43:51;;;;;;;9.93;8.93;;;28.90;70.30;;;;;;6125933;23;20897;-67
2021/09/09 11:46:25;;;;;;;10.43;8.40;;;28.60;70.80;;;;;;6125421;23;20429;-67
2021/09/09 11:48:54;;;;;;;10.87;8.77;;;28.70;71.00;;;;;;6124698;23;20928;-68
2021/09/09 11:51:39;;;;;;;13.23;9.60;;;28.70;70.80;;;;;;6125229;23;20461;-68
2021/09/09 11:54:08;;;;;;;9.60;8.23;;;28.70;70.70;;;;;;6125140;23;20413;-68
2021/09/09 11:56:35;;;;;;;8.57;7.77;;;28.40;71.00;;;;;;6124684;23;20415;-68
2021/09/09 11:59:08;;;;;;;9.77;8.77;;;28.50;72.00;;;;;;6124912;23;20433;-67
2021/09/09 12:01:38;;;;;;;11.53;8.73;;;28.50;72.10;;;;;;6124899;23;20401;-68
2021/09/09 12:04:06;;;;;;;10.13;8.77;;;28.50;71.90;;;;;;6124286;23;20417;-68
2021/09/09 12:06:34;;;;;;;8.63;7.77;;;28.40;72.70;;;;;;6124781;23;20448;-68
2021/09/09 12:09:01;;;;;;;13.17;8.03;;;28.50;72.00;;;;;;6125445;23;20432;-68
2021/09/09 12:11:28;;;;;;;8.90;8.00;;;28.50;72.10;;;;;;6125533;23;20409;-68
2021/09/09 12:13:55;;;;;;;11.83;8.57;;;28.60;72.00;;;;;;6125662;23;20409;-68
2021/09/09 12:16:25;;;;;;;10.53;8.30;;;28.60;72.70;;;;;;6124851;23;20405;-67
2021/09/09 12:19:03;;;;;;;9.37;8.47;;;28.60;72.30;;;;;;6125640;23;20493;-67
2021/09/09 12:21:30;;;;;;;10.87;8.50;;;28.60;72.40;;;;;;6125003;23;20732;-68
2021/09/09 12:24:06;;;;;;;10.40;7.80;;;28.50;72.40;;;;;;6124696;23;20416;-68
2021/09/09 12:26:35;;;;;;;8.30;7.50;;;28.50;72.10;;;;;;6124951;23;20444;-68
2021/09/09 12:29:13;;;;;;;12.00;8.27;;;28.50;72.50;;;;;;6124623;23;20434;-68
2021/09/09 12:31:42;;;;;;;8.67;7.80;;;28.40;72.90;;;;;;6125437;23;20476;-67
2021/09/09 12:34:14;;;;;;;9.63;8.63;;;28.50;73.20;;;;;;6124304;23;20417;-68
2021/09/09 12:36:43;;;;;;;11.30;8.70;;;28.50;74.10;;;;;;6124685;23;20483;-69
2021/09/09 12:39:11;;;;;;;10.77;8.70;;;28.60;72.60;;;;;;6124514;23;20440;-68
2021/09/09 12:41:38;;;;;;;9.30;7.90;;;28.40;71.90;;;;;;6124613;23;20413;-68
2021/09/09 12:44:19;;;;;;;11.03;8.40;;;28.50;72.40;;;;;;6124525;23;20410;-68
2021/09/09 12:46:49;;;;;;;9.93;8.90;;;28.70;72.40;;;;;;6124703;23;20445;-68
2021/09/09 12:49:26;;;;;;;10.13;9.20;;;28.90;72.40;;;;;;6125892;23;20421;-68
2021/09/09 12:52:09;;;;;;;9.37;7.97;;;28.90;72.80;;;;;;6124641;23;20393;-67
2021/09/09 12:54:39;;;;;;;8.30;7.50;;;29.00;72.90;;;;;;6126146;23;20861;-69
2021/09/09 12:57:06;;;;;;;8.30;7.47;;;28.80;72.10;;;;;;6125929;23;20457;-68
2021/09/09 12:59:34;;;;;;;9.73;8.73;;;28.70;72.60;;;;;;6127587;23;20425;-68
2021/09/09 13:02:02;;;;;;;13.23;7.73;;;28.70;73.30;;;;;;6127052;23;20726;-68
2021/09/09 13:04:30;;;;;;;8.40;7.50;;;28.70;72.20;;;;;;6125494;23;20406;-68
2021/09/09 13:06:58;;;;;;;8.77;7.87;;;28.70;71.80;;;;;;6126508;23;20449;-69
2021/09/09 13:09:26;;;;;;;8.10;7.37;;;28.60;72.10;;;;;;6125836;23;20434;-69
2021/09/09 13:11:54;;;;;;;10.63;8.20;;;28.60;72.70;;;;;;6126111;23;20412;-68
2021/09/09 13:14:21;;;;;;;9.43;7.83;;;28.90;73.30;;;;;;6126839;23;20536;-69
2021/09/09 13:16:48;;;;;;;12.03;7.70;;;29.00;71.70;;;;;;6134530;23;20824;-67
2021/09/09 13:19:16;;;;;;;7.77;7.00;;;29.00;70.30;;;;;;6138486;23;20430;-68
2021/09/09 13:21:45;;;;;;;8.70;7.80;;;29.10;70.10;;;;;;6139526;23;20410;-69
2021/09/09 13:24:13;;;;;;;8.93;8.10;;;29.10;70.70;;;;;;6138763;23;20429;-68
2021/09/09 13:26:40;;;;;;;8.60;7.80;;;29.10;70.50;;;;;;6135286;23;20468;-67
2021/09/09 13:29:07;;;;;;;8.53;7.73;;;29.30;70.70;;;;;;6132176;23;20429;-67
2021/09/09 13:31:34;;;;;;;9.00;8.10;;;29.50;70.70;;;;;;6134597;23;20409;-68
2021/09/09 13:34:01;;;;;;;13.47;8.80;;;29.40;70.50;;;;;;6132045;23;20409;-68
2021/09/09 13:36:32;;;;;;;10.53;8.13;;;29.40;70.00;;;;;;6131879;23;20406;-68
2021/09/09 13:38:59;;;;;;;8.17;7.07;;;29.30;70.90;;;;;;6133114;23;20500;-68
2021/09/09 13:41:26;;;;;;;11.10;8.33;;;29.40;70.70;;;;;;6125066;23;20405;-69
2021/09/09 13:43:53;;;;;;;10.00;7.23;;;29.40;71.10;;;;;;6124464;23;20409;-68
2021/09/09 13:46:20;;;;;;;10.33;7.87;;;29.60;71.80;;;;;;6124018;23;20416;-68
2021/09/09 13:48:47;;;;;;;9.60;8.57;;;29.70;72.10;;;;;;6124013;23;20456;-69
2021/09/09 13:51:14;;;;;;;10.70;8.30;;;29.70;71.40;;;;;;6124267;23;20406;-68
2021/09/09 13:53:43;;;;;;;8.40;7.60;;;29.70;71.00;;;;;;6123997;23;20405;-69
2021/09/09 13:56:11;;;;;;;9.87;7.07;;;29.60;69.90;;;;;;6124365;23;20413;-69
2021/09/09 13:58:38;;;;;;;7.77;7.07;;;29.40;70.60;;;;;;6123918;23;20426;-68
2021/09/09 14:01:05;;;;;;;9.50;8.40;;;29.30;71.20;;;;;;6124037;23;20417;-68
2021/09/09 14:03:39;;;;;;;9.07;7.67;;;29.20;70.90;;;;;;6125107;23;20414;-67
2021/09/09 14:06:06;;;;;;;7.83;7.13;;;29.10;71.50;;;;;;6124471;23;20394;-68
2021/09/09 14:08:33;;;;;;;8.70;7.90;;;29.10;71.90;;;;;;6123635;23;20449;-67
2021/09/09 14:11:01;;;;;;;12.40;8.13;;;29.00;71.90;;;;;;6124154;23;20771;-68
2021/09/09 14:13:28;;;;;;;10.23;9.00;;;29.00;72.40;;;;;;6124060;23;20405;-68
2021/09/09 14:15:56;;;;;;;12.27;8.50;;;28.90;72.70;;;;;;6123761;23;20417;-68
2021/09/09 14:18:23;;;;;;;11.67;9.63;;;29.00;73.70;;;;;;6124382;23;20429;-68
2021/09/09 14:20:50;;;;;;;10.37;8.03;;;28.90;73.70;;;;;;6125326;23;20413;-67
2021/09/09 14:23:17;;;;;;;8.30;7.60;;;29.00;73.70;;;;;;6125977;23;20420;-67
2021/09/09 14:25:44;;;;;;;13.30;8.13;;;29.00;73.60;;;;;;6125803;23;20409;-68
2021/09/09 14:28:13;;;;;;;9.00;7.40;;;28.90;73.80;;;;;;6126202;23;20508;-68
2021/09/09 14:30:40;;;;;;;8.33;7.53;;;28.80;74.30;;;;;;6126181;23;20410;-68
2021/09/09 14:33:07;;;;;;;11.97;7.53;;;28.80;73.60;;;;;;6126129;23;20424;-68
2021/09/09 14:35:34;;;;;;;10.23;7.67;;;28.90;73.70;;;;;;6125448;23;20415;-68